Time;durP1;ratioP1;P1;durP2;ratioP2;P2;SDS_P1;SDS_P2;PMS_P1;PMS_P2;Temp;Humidity;BMP_temperature;BMP_pressure;BME280_temperature;BME280_humidity;BME280_pressure;Samples;Min_cycle;Max_cycle;Signal;HPM_P1;HPM_P2
2022/10/13 00:00:57;;;;;;;18.30;11.07;;;18.30;91.70;;;18.56;53.91;99593.59;5084030;27;20505;-74
2022/10/13 00:03:30;;;;;;;18.55;10.52;;;18.30;91.60;;;18.52;53.90;99598.91;5079617;28;20052;-74
2022/10/13 00:05:57;;;;;;;21.88;11.50;;;18.30;91.60;;;18.50;53.82;99603.09;5093027;27;20054;-74
2022/10/13 00:08:25;;;;;;;16.02;9.77;;;18.30;91.50;;;18.50;53.91;99592.91;5105125;27;20998;-74
2022/10/13 00:10:52;;;;;;;20.80;11.68;;;18.30;91.60;;;18.55;54.15;99590.06;5101516;28;20482;-74
2022/10/13 00:13:18;;;;;;;22.45;10.95;;;18.30;91.60;;;18.49;54.12;99596.75;5097189;28;20044;-74
2022/10/13 00:15:45;;;;;;;19.23;10.82;;;18.30;91.70;;;18.50;53.83;99594.84;5099594;27;20117;-74
2022/10/13 00:18:11;;;;;;;22.38;11.63;;;18.30;91.70;;;18.50;53.91;99600.34;5070112;27;20050;-74
2022/10/13 00:20:47;;;;;;;22.10;11.27;;;18.20;91.60;;;18.51;54.08;99596.47;5077902;27;20177;-74
2022/10/13 00:23:14;;;;;;;21.67;11.60;;;18.20;91.60;;;18.42;54.21;99599.13;5093814;28;20042;-74
2022/10/13 00:25:45;;;;;;;25.23;11.65;;;18.20;91.60;;;18.49;54.21;99601.44;5092171;28;20039;-74
2022/10/13 00:28:11;;;;;;;18.73;10.60;;;18.20;91.70;;;18.46;54.17;99597.38;5092653;28;20120;-74
2022/10/13 00:30:37;;;;;;;13.60;9.70;;;18.30;91.70;;;18.46;53.92;99597.38;5104631;27;20451;-74
2022/10/13 00:33:04;;;;;;;18.50;10.13;;;18.30;91.60;;;18.44;53.99;99583.97;5070217;28;20164;-74
2022/10/13 00:35:29;;;;;;;16.58;10.65;;;18.20;91.60;;;18.42;53.97;99597.19;5089126;28;20039;-74
2022/10/13 00:37:55;;;;;;;19.70;10.10;;;18.20;92.00;;;18.45;53.84;99601.25;5092480;28;20047;-74
2022/10/13 00:40:22;;;;;;;16.67;10.20;;;18.20;91.50;;;18.46;53.84;99596.56;5108065;28;20043;-75
2022/10/13 00:42:48;;;;;;;20.92;10.52;;;18.20;91.60;;;18.45;54.12;99593.00;5065677;28;20459;-74
2022/10/13 00:45:16;;;;;;;19.48;11.82;;;18.20;92.10;;;18.43;53.93;99590.56;5121112;28;20144;-74
2022/10/13 00:47:45;;;;;;;21.27;10.23;;;18.20;91.60;;;18.47;53.89;99590.78;5121799;28;20062;-74
2022/10/13 00:50:18;;;;;;;20.98;10.15;;;18.20;91.60;;;18.41;53.84;99591.97;5090667;28;20479;-74
2022/10/13 00:52:44;;;;;;;15.77;9.93;;;18.20;91.60;;;18.42;54.14;99591.69;5092036;28;20386;-74
2022/10/13 00:55:11;;;;;;;19.10;10.10;;;18.20;91.60;;;18.42;53.73;99588.94;5059091;28;20048;-74
2022/10/13 00:57:39;;;;;;;18.63;10.48;;;18.10;91.50;;;18.40;53.80;99591.19;5063963;28;20040;-74
2022/10/13 01:00:06;;;;;;;18.38;10.85;;;18.10;91.50;;;18.41;54.01;99584.56;5087047;28;20134;-74
2022/10/13 01:02:35;;;;;;;17.38;10.40;;;18.10;91.70;;;18.37;54.01;99583.56;5100466;28;20142;-74
2022/10/13 01:05:01;;;;;;;20.20;10.25;;;18.10;91.70;;;18.37;53.87;99586.31;5120616;28;20088;-74
2022/10/13 01:07:27;;;;;;;18.65;10.63;;;18.20;91.70;;;18.38;53.92;99585.16;5075960;28;20060;-74
2022/10/13 01:09:53;;;;;;;15.50;9.32;;;18.10;91.50;;;18.39;53.51;99586.81;5107911;28;20468;-74
2022/10/13 01:12:22;;;;;;;18.73;9.88;;;18.20;91.40;;;18.39;53.76;99575.84;5109658;28;20414;-74
2022/10/13 01:15:09;;;;;;;20.48;11.13;;;18.20;91.40;;;18.38;54.18;99585.16;5120056;28;20047;-74
2022/10/13 01:18:00;;;;;;;17.83;10.70;;;18.20;92.00;;;18.34;54.14;99573.19;5090694;28;20467;-74
2022/10/13 01:20:53;;;;;;;17.02;10.57;;;18.20;91.60;;;18.35;53.87;99568.50;5116631;28;20116;-74
2022/10/13 01:23:31;;;;;;;13.05;8.95;;;18.20;91.60;;;18.35;54.02;99574.00;5094034;28;20173;-74
2022/10/13 01:26:20;;;;;;;20.20;11.13;;;18.20;91.50;;;18.38;53.69;99568.69;5116932;28;20050;-74
2022/10/13 01:28:54;;;;;;;23.02;11.30;;;18.10;91.40;;;18.38;53.91;99578.88;5124597;27;20467;-74
2022/10/13 01:31:41;;;;;;;19.15;11.55;;;18.10;91.40;;;18.40;54.37;99569.19;5106377;28;20035;-74
2022/10/13 01:34:33;;;;;;;19.58;10.02;;;18.10;91.60;;;18.37;53.65;99567.06;5103770;28;20039;-74
2022/10/13 01:37:03;;;;;;;17.00;11.20;;;18.20;91.50;;;18.35;53.81;99561.06;5089822;27;20099;-74
2022/10/13 01:40:03;;;;;;;15.60;8.90;;;18.20;91.50;;;18.33;53.61;99568.78;5122710;27;20061;-74
2022/10/13 01:43:09;;;;;;;17.75;11.00;;;18.10;91.40;;;18.38;53.54;99557.72;5095654;27;20049;-74
2022/10/13 01:45:58;;;;;;;16.60;11.18;;;18.10;91.40;;;18.37;53.49;99561.59;5093587;27;20035;-74
2022/10/13 01:48:25;;;;;;;18.70;10.65;;;18.10;91.40;;;18.27;54.08;99556.31;5107028;27;20157;-76
2022/10/13 01:50:52;;;;;;;21.33;11.48;;;18.10;91.60;;;18.30;53.82;99552.13;5078135;27;20126;-74
2022/10/13 01:53:18;;;;;;;19.58;10.82;;;18.10;91.60;;;18.29;53.82;99550.47;5099063;28;20043;-75
2022/10/13 01:55:58;;;;;;;17.45;11.90;;;18.10;91.50;;;18.26;53.99;99551.09;5090630;27;20409;-75
2022/10/13 01:58:28;;;;;;;17.58;10.05;;;18.10;91.50;;;18.28;54.03;99551.63;5092590;27;20077;-75
2022/10/13 02:01:19;;;;;;;17.73;10.57;;;18.10;91.60;;;18.32;54.11;99547.97;5074297;27;20050;-75
2022/10/13 02:04:24;;;;;;;19.17;9.40;;;18.00;91.60;;;18.28;54.05;99546.94;5115588;27;20849;-75
2022/10/13 02:06:52;;;;;;;17.08;10.38;;;18.10;91.70;;;18.29;53.95;99547.75;5103131;27;20039;-75
2022/10/13 02:10:04;;;;;;;19.77;10.02;;;18.10;91.50;;;18.28;53.76;99546.13;5077767;27;20046;-74
2022/10/13 02:12:52;;;;;;;14.35;9.15;;;18.10;91.40;;;18.25;53.87;99541.25;5087185;27;20051;-75
2022/10/13 02:15:31;;;;;;;17.55;9.90;;;18.10;91.50;;;18.28;53.78;99538.69;5090893;27;20146;-75
2022/10/13 02:17:57;;;;;;;13.98;9.30;;;18.10;91.60;;;18.25;53.98;99531.06;5081694;27;20454;-75
2022/10/13 02:20:24;;;;;;;14.75;10.05;;;18.10;91.60;;;18.26;53.81;99537.38;5104180;27;20488;-75
2022/10/13 02:22:54;;;;;;;14.40;10.00;;;18.10;91.50;;;18.26;53.79;99542.88;5111775;27;20039;-75
2022/10/13 02:25:20;;;;;;;16.37;9.93;;;18.00;91.40;;;18.27;53.87;99533.50;5077287;28;20391;-75
2022/10/13 02:27:47;;;;;;;16.27;10.38;;;18.00;91.50;;;18.22;53.79;99532.50;5088022;27;20421;-74
2022/10/13 02:30:22;;;;;;;15.82;9.65;;;18.00;91.40;;;18.24;53.85;99521.19;5084486;27;20045;-74
2022/10/13 02:32:48;;;;;;;16.48;10.23;;;18.00;91.50;;;18.23;53.83;99527.81;5094654;27;20172;-74
2022/10/13 02:35:14;;;;;;;13.88;9.77;;;18.00;91.50;;;18.19;54.18;99521.31;5091574;27;20083;-74
2022/10/13 02:37:40;;;;;;;17.85;9.93;;;18.00;91.60;;;18.19;53.95;99522.13;5105756;27;20035;-75
2022/10/13 02:40:07;;;;;;;13.77;9.85;;;18.00;91.60;;;18.21;53.97;99522.63;5122299;27;20039;-74
2022/10/13 02:42:33;;;;;;;19.15;10.18;;;18.00;91.50;;;18.22;53.75;99523.47;5106721;27;20077;-75
2022/10/13 02:44:59;;;;;;;14.95;9.27;;;18.00;91.40;;;18.20;53.77;99518.25;5094545;27;20052;-74
2022/10/13 02:47:25;;;;;;;17.27;8.82;;;18.00;91.50;;;18.23;53.61;99527.81;5093333;27;20422;-74
2022/10/13 02:49:52;;;;;;;15.05;9.63;;;18.00;91.40;;;18.26;53.92;99521.69;5095933;27;20507;-75
2022/10/13 02:52:18;;;;;;;15.38;10.02;;;18.00;91.50;;;18.20;53.98;99517.44;5091996;27;20038;-75
2022/10/13 02:54:44;;;;;;;17.67;10.20;;;17.90;91.60;;;18.21;53.91;99525.38;5120434;27;20039;-75
2022/10/13 02:57:10;;;;;;;18.05;10.43;;;18.00;91.50;;;18.16;53.74;99517.22;5109093;27;20394;-75
2022/10/13 02:59:36;;;;;;;16.48;9.70;;;18.00;91.40;;;18.19;53.76;99518.56;5088138;27;20039;-75
2022/10/13 03:02:02;;;;;;;16.05;9.82;;;18.00;91.40;;;18.12;54.05;99520.91;5123120;27;20063;-75
2022/10/13 03:04:28;;;;;;;15.07;9.68;;;18.00;91.50;;;18.14;54.22;99518.66;5087555;27;20031;-75
2022/10/13 03:06:54;;;;;;;12.40;9.10;;;17.90;91.50;;;18.16;54.05;99516.44;5086742;27;20504;-75
2022/10/13 03:09:21;;;;;;;16.45;10.48;;;18.00;91.60;;;18.14;53.86;99516.75;5103367;27;20046;-75
2022/10/13 03:11:46;;;;;;;14.73;9.57;;;17.90;91.40;;;18.13;53.78;99520.59;5106398;27;20078;-76
2022/10/13 03:14:12;;;;;;;15.88;9.48;;;17.90;91.40;;;18.14;53.80;99522.25;5088571;27;20047;-76
2022/10/13 03:16:38;;;;;;;13.70;9.85;;;17.90;91.40;;;18.16;53.72;99511.75;5121059;27;20567;-76
2022/10/13 03:19:04;;;;;;;12.93;9.32;;;18.00;91.50;;;18.17;53.74;99507.09;5087056;27;20099;-76
2022/10/13 03:21:32;;;;;;;14.77;9.25;;;17.90;91.40;;;18.16;53.72;99509.00;5105382;27;20503;-75
2022/10/13 03:23:58;;;;;;;14.32;9.45;;;17.90;91.40;;;18.13;53.88;99511.56;5101428;27;20035;-76
2022/10/13 03:26:24;;;;;;;16.88;9.93;;;17.90;91.50;;;18.13;53.69;99517.03;5099532;27;20046;-76
2022/10/13 03:28:50;;;;;;;11.38;8.82;;;17.90;91.40;;;18.12;53.86;99521.72;5080326;27;20044;-76
2022/10/13 03:31:17;;;;;;;13.95;9.02;;;17.90;91.30;;;18.11;53.49;99511.84;5090573;27;20054;-76
2022/10/13 03:33:43;;;;;;;16.27;9.80;;;17.90;91.30;;;18.12;53.82;99515.44;5074725;27;20119;-76
2022/10/13 03:36:09;;;;;;;15.57;9.70;;;17.90;91.40;;;18.13;53.58;99512.38;5089810;27;20043;-76
2022/10/13 03:38:35;;;;;;;13.65;8.50;;;17.90;91.20;;;18.08;53.94;99514.41;5073762;27;20035;-76
2022/10/13 03:41:06;;;;;;;13.32;8.77;;;17.90;91.20;;;18.14;53.61;99511.25;5090615;27;20445;-76
2022/10/13 03:43:32;;;;;;;15.40;8.90;;;17.90;91.40;;;18.11;53.74;99516.53;5103236;27;20124;-76
2022/10/13 03:46:00;;;;;;;14.80;9.07;;;17.90;91.40;;;18.10;53.44;99521.22;5101508;27;20474;-75
2022/10/13 03:48:26;;;;;;;15.70;9.95;;;17.90;91.40;;;18.11;53.41;99520.09;5086696;27;20055;-75
2022/10/13 03:50:52;;;;;;;16.77;9.25;;;17.90;91.40;;;18.15;53.29;99514.81;5099489;27;20043;-75
2022/10/13 03:53:19;;;;;;;13.10;8.88;;;17.90;91.20;;;18.11;53.21;99509.09;5086171;28;20143;-75
2022/10/13 03:55:53;;;;;;;12.48;8.93;;;17.80;91.20;;;18.09;53.04;99518.75;5087984;27;20514;-75
2022/10/13 03:58:19;;;;;;;12.50;8.40;;;17.80;91.00;;;18.06;52.77;99513.88;5075643;27;20126;-75
2022/10/13 04:00:45;;;;;;;13.80;8.77;;;17.80;90.90;;;18.07;52.58;99512.78;5083841;27;20059;-75
2022/10/13 04:03:11;;;;;;;16.95;9.15;;;17.80;90.80;;;18.02;52.99;99513.69;5079897;27;20603;-75
2022/10/13 04:05:38;;;;;;;12.40;8.57;;;17.90;91.00;;;18.09;53.07;99510.53;5102701;27;20435;-75
2022/10/13 04:08:04;;;;;;;13.20;8.80;;;17.80;91.00;;;18.03;53.11;99509.81;5069999;28;20039;-75
2022/10/13 04:10:30;;;;;;;10.98;7.75;;;17.80;91.00;;;18.03;52.86;99507.09;5081729;27;20059;-75
2022/10/13 04:12:56;;;;;;;10.40;7.68;;;17.80;90.90;;;18.05;52.50;99515.03;5084571;28;20488;-75
2022/10/13 04:15:22;;;;;;;14.55;9.13;;;17.80;90.80;;;18.02;52.43;99512.91;5100374;27;20131;-75
2022/10/13 04:17:48;;;;;;;14.95;10.15;;;17.80;90.70;;;18.04;52.42;99513.38;5104725;28;20039;-76
2022/10/13 04:20:14;;;;;;;11.77;8.60;;;17.80;90.70;;;18.04;52.33;99505.97;5088823;28;20059;-76
2022/10/13 04:22:40;;;;;;;16.80;8.80;;;17.80;90.70;;;17.99;52.55;99506.09;5087065;27;20502;-76
2022/10/13 04:25:07;;;;;;;19.30;8.70;;;17.80;90.80;;;18.03;52.50;99504.34;5080692;28;20044;-76
2022/10/13 04:27:37;;;;;;;14.30;8.23;;;17.80;90.80;;;18.04;52.25;99505.13;5099077;28;20042;-75
2022/10/13 04:30:05;;;;;;;12.88;8.38;;;17.80;90.70;;;17.98;52.33;99505.25;5104620;28;20045;-75
2022/10/13 04:32:31;;;;;;;10.82;8.18;;;17.80;90.70;;;18.02;52.01;99512.91;5086101;28;20049;-75
2022/10/13 04:34:59;;;;;;;12.20;8.50;;;17.70;90.50;;;17.95;52.15;99513.28;5091942;28;20043;-75
2022/10/13 04:37:25;;;;;;;15.07;8.90;;;17.70;90.60;;;17.97;52.48;99506.38;5098235;28;20045;-75
2022/10/13 04:39:51;;;;;;;9.98;7.15;;;17.80;90.80;;;17.97;52.71;99500.09;5098157;28;20381;-75
2022/10/13 04:42:20;;;;;;;11.52;8.02;;;17.70;90.80;;;18.00;52.16;99504.94;5102452;28;20035;-75
2022/10/13 04:44:46;;;;;;;10.32;7.30;;;17.70;90.70;;;17.99;52.00;99498.66;5073616;28;20168;-75
2022/10/13 04:47:12;;;;;;;15.25;8.60;;;17.70;90.50;;;17.97;51.77;99500.88;5091225;28;20057;-75
2022/10/13 04:49:38;;;;;;;12.70;8.02;;;17.70;90.40;;;17.97;51.78;99503.63;5105085;28;20168;-79
2022/10/13 04:52:04;;;;;;;12.45;8.65;;;17.70;90.30;;;17.89;52.37;99501.59;5074857;28;20414;-79
2022/10/13 04:54:30;;;;;;;11.88;8.15;;;17.70;90.60;;;17.94;52.63;99495.22;5066047;28;20270;-78
2022/10/13 04:56:58;;;;;;;10.93;7.68;;;17.70;90.80;;;17.97;52.25;99494.59;5069555;28;20039;-79
2022/10/13 04:59:24;;;;;;;12.90;7.88;;;17.70;90.60;;;17.97;52.03;99497.34;5083569;28;20127;-79
2022/10/13 05:01:50;;;;;;;11.45;7.88;;;17.70;90.50;;;17.92;51.75;99502.94;5101495;28;20445;-79
2022/10/13 05:04:16;;;;;;;11.73;8.10;;;17.70;90.40;;;17.92;51.75;99506.47;5105381;28;20027;-79
2022/10/13 05:06:42;;;;;;;14.68;8.07;;;17.70;90.40;;;17.91;51.82;99498.53;5054222;28;20088;-76
2022/10/13 05:09:13;;;;;;;13.52;8.93;;;17.70;90.40;;;17.94;52.40;99501.50;5068449;28;20044;-76
2022/10/13 05:11:39;;;;;;;14.73;8.55;;;17.70;90.60;;;17.94;52.25;99498.75;5070307;27;20531;-76
2022/10/13 05:14:04;;;;;;;12.80;8.90;;;17.70;90.60;;;17.96;52.28;99492.94;5108727;27;20498;-76
2022/10/13 05:16:31;;;;;;;10.70;7.65;;;17.70;90.60;;;17.93;51.89;99496.31;5094489;27;20035;-76
2022/10/13 05:18:57;;;;;;;13.38;8.98;;;17.70;90.40;;;17.99;51.52;99508.84;5102986;27;20046;-76
2022/10/13 05:21:25;;;;;;;13.60;8.15;;;17.80;90.40;;;17.99;51.61;99506.09;5074133;27;20043;-76
2022/10/13 05:23:55;;;;;;;13.85;8.88;;;17.80;90.20;;;18.05;51.67;99504.03;5093535;28;20044;-79
2022/10/13 05:26:27;;;;;;;11.93;8.02;;;17.80;90.40;;;18.06;51.83;99509.22;5074656;27;20054;-78
2022/10/13 05:29:02;;;;;;;12.82;8.50;;;17.70;90.50;;;18.09;52.11;99505.03;5097284;27;20133;-78
2022/10/13 05:31:30;;;;;;;15.80;8.68;;;17.70;90.60;;;18.08;51.53;99514.41;5078087;27;20036;-78
2022/10/13 05:33:59;;;;;;;13.63;8.07;;;17.80;90.50;;;18.11;51.84;99508.28;5068457;28;20135;-78
2022/10/13 05:36:31;;;;;;;13.73;7.72;;;17.80;90.60;;;18.14;52.00;99507.69;5104745;27;20043;-78
2022/10/13 05:39:01;;;;;;;10.65;7.40;;;17.80;90.70;;;18.21;51.48;99521.81;5088475;27;20478;-78
2022/10/13 05:41:28;;;;;;;13.55;8.52;;;17.90;90.50;;;18.19;51.89;99519.38;5087603;27;20050;-78
2022/10/13 05:44:03;;;;;;;13.23;7.88;;;17.90;90.70;;;18.17;52.32;99513.38;5088442;27;20122;-78
2022/10/13 05:46:29;;;;;;;10.63;7.43;;;17.80;90.80;;;18.24;51.81;99510.22;5092694;27;20055;-78
2022/10/13 05:48:57;;;;;;;15.15;7.50;;;17.90;90.70;;;18.23;51.74;99508.59;5106329;27;20494;-78
2022/10/13 05:51:26;;;;;;;11.93;7.72;;;17.90;90.50;;;18.22;51.26;99517.97;5093675;27;20039;-78
2022/10/13 05:54:18;;;;;;;12.52;8.40;;;17.90;90.30;;;18.26;51.57;99512.66;5084740;27;20058;-78
2022/10/13 05:57:20;;;;;;;13.18;8.38;;;18.00;90.40;;;18.37;51.20;99514.09;5124121;27;20036;-78
2022/10/13 06:00:02;;;;;;;10.23;7.07;;;18.00;90.40;;;18.38;51.07;99516.50;5099574;27;20098;-78
2022/10/13 06:02:33;;;;;;;14.50;7.40;;;18.00;90.40;;;18.44;51.18;99517.19;5051999;28;20056;-78
2022/10/13 06:05:00;;;;;;;11.85;7.85;;;18.10;90.50;;;18.41;51.45;99517.81;5046162;28;20031;-78
2022/10/13 06:07:25;;;;;;;13.43;7.68;;;18.00;90.60;;;18.50;51.34;99520.66;5078710;28;20050;-78
2022/10/13 06:09:52;;;;;;;15.75;8.00;;;18.00;90.60;;;18.53;51.57;99517.31;5051699;28;20047;-78
2022/10/13 06:12:18;;;;;;;13.57;8.45;;;18.10;90.50;;;18.54;51.31;99510.66;5107002;27;21729;-78
2022/10/13 06:14:44;;;;;;;10.63;7.57;;;18.10;90.50;;;18.50;51.22;99515.97;5092305;28;20130;-78
2022/10/13 06:17:11;;;;;;;22.60;7.53;;;18.10;90.40;;;18.57;51.27;99515.53;5090025;28;20451;-78
2022/10/13 06:19:36;;;;;;;11.88;7.78;;;18.20;90.40;;;18.64;51.08;99518.69;5076598;28;20043;-78
2022/10/13 06:22:02;;;;;;;11.32;7.55;;;18.20;90.40;;;18.63;51.29;99514.31;5059687;28;20052;-78
2022/10/13 06:24:29;;;;;;;13.75;7.45;;;18.20;90.50;;;18.72;51.21;99512.44;5074500;28;20575;-78
2022/10/13 06:26:58;;;;;;;9.73;7.03;;;18.20;90.60;;;18.74;50.98;99512.16;5069841;28;20075;-78
2022/10/13 06:29:24;;;;;;;15.05;7.20;;;18.30;90.50;;;18.76;50.90;99513.50;5091001;28;20122;-77
2022/10/13 06:31:50;;;;;;;10.65;7.35;;;18.30;90.40;;;18.79;50.89;99517.56;5061779;28;20032;-78
2022/10/13 06:34:16;;;;;;;11.88;7.18;;;18.30;90.40;;;18.79;50.87;99506.56;5059239;28;20046;-77
2022/10/13 06:36:42;;;;;;;10.18;7.28;;;18.30;90.40;;;18.82;50.98;99512.25;5107071;27;20168;-77
2022/10/13 06:39:09;;;;;;;8.68;6.75;;;18.40;90.50;;;18.86;51.07;99513.25;5087331;28;20504;-77
2022/10/13 06:41:35;;;;;;;10.23;6.30;;;18.40;90.50;;;18.90;51.01;99504.38;5091036;28;20067;-77
2022/10/13 06:44:01;;;;;;;14.00;6.53;;;18.40;90.50;;;18.91;50.85;99504.06;5069078;28;20043;-77
2022/10/13 06:46:27;;;;;;;11.55;7.22;;;18.50;90.40;;;18.95;50.70;99504.25;5060183;28;20085;-77
2022/10/13 06:48:53;;;;;;;10.18;7.15;;;18.50;90.40;;;18.98;50.82;99498.13;5104478;27;20043;-77
2022/10/13 06:51:19;;;;;;;10.73;7.05;;;18.50;90.30;;;19.00;51.08;99502.19;5087226;28;20123;-77
2022/10/13 06:53:45;;;;;;;12.23;7.03;;;18.50;90.40;;;19.04;51.16;99499.63;5100213;27;20427;-77
2022/10/13 06:56:11;;;;;;;12.25;7.25;;;18.50;90.40;;;19.03;50.84;99503.50;5078955;27;20039;-77
2022/10/13 06:58:38;;;;;;;13.80;7.00;;;18.50;90.50;;;19.08;50.72;99503.38;5076898;27;20315;-77
2022/10/13 07:01:05;;;;;;;9.25;6.45;;;18.60;90.40;;;19.11;50.64;99496.44;5070897;28;20478;-77
2022/10/13 07:03:31;;;;;;;10.88;7.65;;;18.70;90.40;;;19.11;50.64;99502.78;5087303;27;20406;-78
2022/10/13 07:06:01;;;;;;;9.13;6.65;;;18.70;90.40;;;19.18;50.46;99502.31;5073169;28;20410;-78
2022/10/13 07:08:27;;;;;;;9.67;6.67;;;18.70;90.40;;;19.19;50.69;99504.75;5096054;28;20100;-78
2022/10/13 07:10:53;;;;;;;11.50;6.50;;;18.70;90.40;;;19.23;50.62;99499.44;5096190;27;20035;-78
2022/10/13 07:13:19;;;;;;;9.70;6.43;;;18.70;90.40;;;19.25;50.56;99495.25;5065027;28;20040;-78
2022/10/13 07:15:46;;;;;;;9.18;6.68;;;18.80;90.40;;;19.26;50.65;99496.06;5072676;27;20043;-78
2022/10/13 07:18:12;;;;;;;15.77;6.50;;;18.80;90.30;;;19.35;50.37;99496.13;5072531;28;20973;-78
2022/10/13 07:20:38;;;;;;;8.98;6.32;;;18.90;90.30;;;19.34;50.10;99500.81;5086467;28;20161;-78
2022/10/13 07:23:04;;;;;;;8.75;6.65;;;18.90;90.30;;;19.39;50.31;99497.13;5087977;28;20038;-78
2022/10/13 07:25:30;;;;;;;12.23;6.82;;;18.90;90.30;;;19.39;50.28;99499.88;5083377;28;20039;-78
2022/10/13 07:28:00;;;;;;;9.73;6.60;;;18.90;90.30;;;19.42;50.39;99490.97;5052338;27;20101;-78
2022/10/13 07:30:26;;;;;;;8.60;6.28;;;19.00;90.50;;;19.44;50.37;99484.03;5059289;27;20150;-78
2022/10/13 07:32:53;;;;;;;7.68;5.65;;;18.90;90.30;;;19.48;50.00;99486.94;5071616;28;20105;-77
2022/10/13 07:35:20;;;;;;;9.98;7.18;;;19.00;90.40;;;19.51;50.05;99489.06;5082531;28;20454;-77
2022/10/13 07:37:46;;;;;;;10.20;6.55;;;19.00;90.30;;;19.54;49.99;99488.47;5067565;28;20485;-77
2022/10/13 07:40:13;;;;;;;9.93;7.43;;;19.00;90.20;;;19.56;50.13;99488.13;5052313;28;20040;-77
2022/10/13 07:42:39;;;;;;;10.13;6.63;;;19.10;90.30;;;19.55;50.16;99484.56;5098325;27;20534;-77
2022/10/13 07:45:06;;;;;;;10.48;7.03;;;19.10;90.30;;;19.58;50.16;99483.94;5103774;27;20119;-77
2022/10/13 07:47:35;;;;;;;9.85;6.45;;;19.10;90.30;;;19.60;50.14;99478.94;5087875;27;20063;-77
2022/10/13 07:50:01;;;;;;;11.70;7.13;;;19.10;90.30;;;19.58;50.14;99480.38;5086042;28;20115;-77
2022/10/13 07:52:27;;;;;;;10.18;6.25;;;19.20;90.30;;;19.63;50.13;99471.97;5101696;28;20474;-77
2022/10/13 07:54:53;;;;;;;9.93;6.15;;;19.20;90.20;;;19.63;50.05;99481.03;5069202;28;20054;-77
2022/10/13 07:57:19;;;;;;;9.77;6.80;;;19.20;90.20;;;19.65;49.77;99480.72;5087779;28;20047;-77
2022/10/13 07:59:45;;;;;;;8.85;6.25;;;19.20;90.10;;;19.71;50.20;99468.47;5084914;28;20043;-77
2022/10/13 08:02:11;;;;;;;9.25;6.15;;;19.30;90.20;;;19.70;50.21;99475.91;5083215;28;20505;-77
2022/10/13 08:04:37;;;;;;;9.10;6.22;;;19.30;90.20;;;19.73;50.00;99469.78;5088019;28;20035;-77
2022/10/13 08:07:04;;;;;;;7.60;6.03;;;19.40;90.20;;;19.75;49.98;99463.97;5073776;28;20159;-77
2022/10/13 08:09:30;;;;;;;8.15;6.05;;;19.40;90.10;;;19.74;50.10;99454.06;5074381;28;20031;-77
2022/10/13 08:11:56;;;;;;;7.70;5.72;;;19.30;90.00;;;19.80;49.86;99457.50;5091516;28;20050;-77
2022/10/13 08:14:22;;;;;;;6.70;5.63;;;19.40;90.10;;;19.81;49.92;99450.84;5089169;28;20059;-77
2022/10/13 08:16:49;;;;;;;9.07;6.65;;;19.40;90.20;;;19.83;49.95;99463.16;5059179;28;20103;-77
2022/10/13 08:19:15;;;;;;;9.25;5.93;;;19.40;90.20;;;19.85;50.06;99447.16;5041972;28;20114;-77
2022/10/13 08:21:42;;;;;;;6.85;6.13;;;19.40;90.20;;;19.86;49.73;99447.97;5071739;28;20039;-77
2022/10/13 08:24:13;;;;;;;12.07;6.18;;;19.40;90.10;;;19.87;49.86;99446.81;5090868;28;20040;-77
2022/10/13 08:26:39;;;;;;;8.52;6.88;;;19.50;90.10;;;19.88;49.72;99442.94;5071834;28;20035;-77
2022/10/13 08:29:05;;;;;;;6.30;5.13;;;19.50;90.00;;;19.91;49.72;99442.31;5091703;28;20046;-78
2022/10/13 08:31:31;;;;;;;6.38;5.45;;;19.50;90.10;;;19.89;49.79;99439.84;5106090;28;20565;-78
2022/10/13 08:33:57;;;;;;;7.50;4.93;;;19.50;90.00;;;19.92;49.84;99432.91;5086421;28;20047;-78
2022/10/13 08:36:23;;;;;;;9.20;5.55;;;19.60;90.10;;;19.94;49.79;99436.16;5085048;28;20623;-78
2022/10/13 08:38:51;;;;;;;7.68;5.70;;;19.60;90.10;;;19.94;49.80;99441.66;5103958;28;20072;-78
2022/10/13 08:41:23;;;;;;;7.57;5.75;;;19.60;89.80;;;19.96;49.59;99439.41;5072029;28;20036;-78
2022/10/13 08:43:57;;;;;;;7.78;6.30;;;19.60;89.70;;;19.93;49.76;99442.81;5074346;28;20035;-78
2022/10/13 08:46:48;;;;;;;5.72;4.75;;;19.60;89.70;;;20.00;49.48;99440.41;5067420;28;20039;-78
2022/10/13 08:49:14;;;;;;;9.20;5.68;;;19.60;89.80;;;19.98;49.87;99433.59;5061976;28;20059;-78
2022/10/13 08:51:41;;;;;;;7.15;5.47;;;19.70;89.90;;;20.01;49.63;99425.47;5077256;28;20040;-78
2022/10/13 08:54:07;;;;;;;9.35;6.47;;;19.60;89.80;;;20.02;49.68;99431.78;5080455;28;20045;-78
2022/10/13 08:56:33;;;;;;;7.57;5.43;;;19.70;89.80;;;20.02;49.57;99429.84;5061643;28;20050;-78
2022/10/13 08:59:00;;;;;;;8.82;6.07;;;19.70;89.80;;;20.04;49.51;99424.03;5055631;27;20122;-78
2022/10/13 09:01:33;;;;;;;8.48;5.78;;;19.70;89.80;;;20.05;49.50;99420.97;5059331;28;20441;-78
2022/10/13 09:04:25;;;;;;;7.95;5.18;;;19.80;90.00;;;20.08;49.62;99425.81;5076506;28;20392;-78
2022/10/13 09:07:00;;;;;;;6.82;5.55;;;19.70;89.80;;;20.09;49.75;99421.94;5087162;28;20052;-78
2022/10/13 09:09:26;;;;;;;6.85;5.30;;;19.80;90.00;;;20.08;49.67;99414.81;5073306;28;20105;-78
2022/10/13 09:11:52;;;;;;;8.00;6.50;;;19.80;90.00;;;20.09;49.69;99423.88;5069398;28;20035;-78
2022/10/13 09:14:39;;;;;;;9.23;6.00;;;19.80;89.90;;;20.11;49.20;99418.88;5054385;28;20051;-78
2022/10/13 09:17:25;;;;;;;8.00;5.93;;;19.80;89.90;;;20.11;49.35;99419.66;5069485;28;20040;-78
2022/10/13 09:20:26;;;;;;;9.02;5.50;;;19.80;89.90;;;20.15;49.49;99417.91;5066202;28;20051;-78
2022/10/13 09:23:06;;;;;;;7.47;5.43;;;19.80;90.00;;;20.19;49.35;99417.25;5059876;28;20416;-78
2022/10/13 09:25:43;;;;;;;7.57;5.07;;;19.90;90.30;;;20.16;49.55;99410.44;5064015;28;20039;-78
2022/10/13 09:28:28;;;;;;;7.32;5.70;;;19.80;89.60;;;20.17;49.58;99410.13;5093744;28;20177;-78
2022/10/13 09:31:01;;;;;;;9.73;5.68;;;19.90;89.70;;;20.17;49.46;99410.13;5069536;28;20068;-78
2022/10/13 09:33:28;;;;;;;6.35;5.20;;;19.90;89.60;;;20.17;49.34;99412.88;5066058;28;20083;-78
2022/10/13 09:36:05;;;;;;;6.70;5.47;;;19.90;89.60;;;20.19;49.36;99414.50;5063583;28;20475;-78
2022/10/13 09:38:31;;;;;;;5.63;4.55;;;19.90;89.60;;;20.20;49.33;99410.59;5083114;28;20050;-78
2022/10/13 09:41:07;;;;;;;6.10;5.05;;;19.90;89.60;;;20.22;49.21;99405.59;5050681;28;20514;-78
2022/10/13 09:43:59;;;;;;;7.32;5.10;;;20.00;89.60;;;20.24;49.46;99406.88;5074553;28;20036;-78
2022/10/13 09:46:37;;;;;;;7.40;5.65;;;20.00;89.50;;;20.22;49.32;99400.06;5063698;28;20449;-78
2022/10/13 09:49:26;;;;;;;6.70;5.00;;;20.00;89.50;;;20.22;49.27;99403.63;5061051;28;20097;-78
2022/10/13 09:51:56;;;;;;;6.97;5.03;;;20.00;89.40;;;20.27;49.47;99394.41;5071095;28;20120;-78
2022/10/13 09:54:50;;;;;;;5.50;4.87;;;20.00;89.50;;;20.29;49.20;99400.41;5075763;28;20056;-78
2022/10/13 09:57:27;;;;;;;5.07;4.45;;;20.00;89.50;;;20.29;49.36;99378.38;5067893;28;20410;-78
2022/10/13 10:00:11;;;;;;;6.22;4.70;;;20.00;89.30;;;20.31;49.19;99378.84;5074028;28;20477;-78
2022/10/13 10:03:25;;;;;;;7.50;4.78;;;20.10;89.40;;;20.30;48.98;99378.06;5092494;27;20122;-78
2022/10/13 10:05:55;;;;;;;5.75;5.07;;;20.10;89.30;;;20.30;49.19;99375.31;5112557;27;20114;-78
2022/10/13 10:08:50;;;;;;;10.57;6.03;;;20.10;89.20;;;20.32;49.21;99370.25;5096638;27;20042;-78
2022/10/13 10:11:23;;;;;;;5.35;4.75;;;20.10;89.30;;;20.33;49.24;99365.56;5107927;27;20122;-78
2022/10/13 10:13:51;;;;;;;6.80;5.00;;;20.10;89.30;;;20.34;48.83;99364.44;5068304;27;20051;-78
2022/10/13 10:16:19;;;;;;;5.95;5.10;;;20.20;89.30;;;20.32;49.33;99361.19;5084360;27;20037;-78
2022/10/13 10:18:54;;;;;;;6.32;5.40;;;20.10;89.10;;;20.36;49.49;99354.69;5104046;27;20095;-78
2022/10/13 10:21:37;;;;;;;11.45;5.80;;;20.20;89.10;;;20.36;48.98;99349.19;5088868;27;20035;-78
2022/10/13 10:24:45;;;;;;;6.00;4.75;;;20.20;89.10;;;20.37;49.17;99361.81;5092676;27;20770;-78
2022/10/13 10:27:30;;;;;;;6.07;4.50;;;20.20;89.00;;;20.40;49.08;99357.59;5081540;27;20077;-78